createdAt,value
2022-08-11T00:00:59.182Z,3.47
2022-08-11T00:02:02.360Z,3.83
2022-08-11T00:03:08.804Z,3.30
2022-08-11T00:04:13.490Z,3.53
2022-08-11T00:05:20.124Z,3.25
2022-08-11T00:06:27.477Z,4.43
2022-08-11T00:07:34.358Z,4.10
2022-08-11T00:08:37.524Z,3.63
2022-08-11T00:09:41.407Z,3.40
2022-08-11T00:10:50.623Z,3.50
2022-08-11T00:11:58.681Z,3.88
2022-08-11T00:13:07.584Z,4.30
2022-08-11T00:14:17.906Z,3.75
2022-08-11T00:15:21.098Z,4.30
2022-08-11T00:16:26.522Z,3.85
2022-08-11T00:17:30.837Z,3.20
2022-08-11T00:18:42.178Z,3.75
2022-08-11T00:20:12.077Z,3.83
2022-08-11T00:21:10.685Z,3.45
2022-08-11T00:22:20.996Z,3.95
2022-08-11T00:23:25.010Z,3.60
2022-08-11T00:24:33.815Z,4.00
2022-08-11T00:25:58.275Z,3.75
2022-08-11T00:27:02.043Z,3.95
2022-08-11T00:28:23.144Z,3.97
2022-08-11T00:29:31.151Z,3.40
2022-08-11T00:30:39.839Z,3.78
2022-08-11T00:31:47.727Z,3.70
2022-08-11T00:32:58.768Z,3.85
2022-08-11T00:34:02.644Z,3.88
2022-08-11T00:35:54.654Z,3.72
2022-08-11T00:36:43.858Z,3.20
2022-08-11T00:37:49.818Z,3.53
2022-08-11T00:38:55.006Z,3.90
2022-08-11T00:39:58.125Z,4.00
2022-08-11T00:41:16.538Z,3.75
2022-08-11T00:42:29.307Z,3.55
2022-08-11T00:43:50.179Z,3.55
2022-08-11T00:45:07.631Z,3.53
2022-08-11T00:46:16.406Z,3.60
2022-08-11T00:47:35.248Z,3.95
2022-08-11T00:48:45.975Z,3.42
2022-08-11T00:50:02.261Z,3.65
2022-08-11T00:51:14.013Z,3.78
2022-08-11T00:52:30.779Z,4.63
2022-08-11T00:53:46.750Z,3.65
2022-08-11T00:55:36.183Z,4.30
2022-08-11T00:57:37.592Z,4.10
2022-08-11T00:59:34.258Z,4.45
2022-08-11T01:00:58.683Z,3.80
2022-08-11T01:02:14.968Z,4.00
2022-08-11T01:03:27.283Z,3.72
2022-08-11T01:05:01.524Z,4.28
2022-08-11T01:06:32.910Z,4.30
2022-08-11T01:08:15.559Z,4.20
2022-08-11T01:09:43.839Z,3.78
2022-08-11T01:10:59.354Z,3.80
2022-08-11T01:12:33.385Z,3.80
2022-08-11T01:14:12.128Z,4.13
2022-08-11T01:15:57.168Z,4.25
2022-08-11T01:17:30.344Z,4.45
2022-08-11T01:19:14.222Z,3.80
2022-08-11T01:20:46.746Z,3.85
2022-08-11T01:22:26.883Z,4.30
2022-08-11T01:24:04.501Z,4.03
2022-08-11T01:25:46.255Z,4.38
2022-08-11T01:27:25.652Z,3.58
2022-08-11T01:29:13.784Z,3.90
2022-08-11T01:30:42.594Z,4.00
2022-08-11T01:32:13.953Z,4.10
2022-08-11T01:34:01.885Z,3.88
2022-08-11T01:35:37.346Z,4.47
2022-08-11T01:37:12.109Z,4.15
2022-08-11T01:38:54.349Z,4.55
2022-08-11T01:40:36.979Z,4.00
2022-08-11T01:42:37.084Z,4.03
2022-08-11T01:44:30.637Z,3.92
2022-08-11T01:45:40.871Z,4.65
2022-08-11T01:46:47.297Z,4.65
2022-08-11T01:48:02.009Z,3.90
2022-08-11T01:50:05.870Z,3.40
2022-08-11T01:51:03.423Z,4.50
2022-08-11T01:52:18.746Z,4.35
2022-08-11T01:53:31.810Z,3.70
2022-08-11T01:54:42.055Z,3.78
2022-08-11T01:55:58.011Z,3.78
2022-08-11T01:57:19.133Z,4.00
2022-08-11T01:58:43.945Z,4.28
2022-08-11T01:59:51.856Z,3.97
2022-08-11T02:01:11.713Z,3.80
2022-08-11T02:02:45.976Z,4.05
2022-08-11T02:03:58.469Z,3.72
2022-08-11T02:05:11.218Z,4.30
2022-08-11T02:06:45.471Z,4.13
2022-08-11T02:07:58.074Z,3.90
2022-08-11T02:09:09.456Z,4.22
2022-08-11T02:10:42.083Z,3.35
2022-08-11T02:11:56.937Z,4.25
2022-08-11T02:13:15.347Z,4.20
2022-08-11T02:14:27.427Z,4.05
2022-08-11T02:15:36.476Z,3.70
2022-08-11T02:16:54.612Z,4.20
2022-08-11T02:18:08.378Z,4.45
2022-08-11T02:19:39.537Z,4.07
2022-08-11T02:21:07.265Z,3.97
2022-08-11T02:22:37.555Z,4.25
2022-08-11T02:24:04.833Z,4.30
2022-08-11T02:25:12.779Z,4.05
2022-08-11T02:26:24.519Z,3.92
2022-08-11T02:27:37.099Z,3.53
2022-08-11T02:29:04.154Z,4.00
2022-08-11T02:30:10.464Z,4.93
2022-08-11T02:32:10.980Z,4.28
2022-08-11T02:33:27.438Z,4.70
2022-08-11T02:34:42.578Z,3.58
2022-08-11T02:35:54.048Z,4.18
2022-08-11T02:37:03.096Z,4.90
2022-08-11T02:38:18.638Z,3.97
2022-08-11T02:39:24.851Z,3.67
2022-08-11T02:40:35.506Z,3.50
2022-08-11T02:42:05.205Z,4.28
2022-08-11T02:43:26.218Z,4.85
2022-08-11T02:44:37.101Z,5.53
2022-08-11T02:45:50.155Z,4.75
2022-08-11T02:47:01.790Z,4.55
2022-08-11T02:48:32.630Z,4.88
2022-08-11T02:50:03.458Z,4.25
2022-08-11T02:51:22.147Z,4.20
2022-08-11T02:52:35.431Z,4.40
2022-08-11T02:53:48.874Z,4.75
2022-08-11T02:55:44.676Z,4.63
2022-08-11T02:56:55.764Z,4.78
2022-08-11T02:58:03.586Z,4.40
2022-08-11T02:59:38.882Z,4.72
2022-08-11T03:00:52.206Z,4.30
2022-08-11T03:02:04.777Z,4.50
2022-08-11T03:03:25.635Z,4.43
2022-08-11T03:04:38.025Z,4.60
2022-08-11T03:05:52.900Z,5.30
2022-08-11T03:07:06.099Z,4.30
2022-08-11T03:08:51.320Z,4.20
2022-08-11T03:10:10.116Z,4.22
2022-08-11T03:11:36.542Z,4.40
2022-08-11T03:13:23.114Z,4.60
2022-08-11T03:14:49.099Z,4.65
2022-08-11T03:16:26.930Z,4.55
2022-08-11T03:17:35.339Z,4.55
2022-08-11T03:18:45.649Z,4.82
2022-08-11T03:20:00.179Z,4.65
2022-08-11T03:21:09.291Z,4.97
2022-08-11T03:22:23.508Z,6.05
2022-08-11T03:23:31.099Z,4.80
2022-08-11T03:24:50.025Z,4.65
2022-08-11T03:26:15.730Z,5.20
2022-08-11T03:27:34.146Z,4.85
2022-08-11T03:28:45.631Z,4.53
2022-08-11T03:30:01.530Z,5.03
2022-08-11T03:31:24.863Z,4.75
2022-08-11T03:32:30.935Z,4.55
2022-08-11T03:33:55.555Z,4.93
2022-08-11T03:35:02.687Z,4.32
2022-08-11T03:36:25.076Z,5.90
2022-08-11T03:37:52.391Z,5.07
2022-08-11T03:39:06.627Z,5.00
2022-08-11T03:40:40.754Z,4.45
2022-08-11T03:42:04.106Z,5.05
2022-08-11T03:43:18.459Z,5.30
2022-08-11T03:44:51.798Z,4.35
2022-08-11T03:46:03.542Z,4.93
2022-08-11T03:47:38.505Z,5.05
2022-08-11T03:48:49.262Z,4.75
2022-08-11T03:50:04.866Z,4.80
2022-08-11T03:51:18.770Z,4.70
2022-08-11T03:52:29.704Z,4.95
2022-08-11T03:53:55.169Z,4.65
2022-08-11T03:55:10.899Z,5.40
2022-08-11T03:56:52.721Z,5.20
2022-08-11T03:58:41.909Z,4.63
2022-08-11T04:00:14.900Z,5.30
2022-08-11T04:01:41.538Z,5.03
2022-08-11T04:03:31.337Z,5.70
2022-08-11T04:05:08.730Z,5.20
2022-08-11T04:06:45.094Z,5.00
2022-08-11T04:08:21.825Z,4.43
2022-08-11T04:09:57.098Z,4.47
2022-08-11T04:11:41.892Z,5.40
2022-08-11T04:13:08.710Z,5.10
2022-08-11T04:15:00.977Z,5.60
2022-08-11T04:16:25.738Z,5.97
2022-08-11T04:17:59.084Z,5.38
2022-08-11T04:19:38.248Z,5.85
2022-08-11T04:20:58.242Z,4.65
2022-08-11T04:22:32.586Z,5.22
2022-08-11T04:24:38.400Z,5.57
2022-08-11T04:26:34.180Z,5.60
2022-08-11T04:28:29.237Z,5.78
2022-08-11T04:30:03.047Z,6.22
2022-08-11T04:31:44.291Z,5.00
2022-08-11T04:33:11.560Z,5.25
2022-08-11T04:34:39.317Z,5.22
2022-08-11T04:35:54.760Z,6.32
2022-08-11T04:37:29.363Z,5.90
2022-08-11T04:38:58.701Z,5.30
2022-08-11T04:40:12.835Z,5.95
2022-08-11T04:41:34.475Z,6.05
2022-08-11T04:43:21.793Z,6.13
2022-08-11T04:44:54.473Z,5.78
2022-08-11T04:46:35.722Z,6.55
2022-08-11T04:48:23.504Z,5.75
2022-08-11T04:50:20.035Z,6.72
2022-08-11T04:52:13.278Z,6.40
2022-08-11T04:53:52.294Z,6.50
2022-08-11T04:55:26.554Z,5.50
2022-08-11T04:56:55.437Z,6.18
2022-08-11T04:58:39.775Z,6.53
2022-08-11T05:00:24.023Z,5.65
2022-08-11T05:01:43.889Z,6.50
2022-08-11T05:03:22.739Z,5.72
2022-08-11T05:05:09.893Z,6.00
2022-08-11T05:06:48.224Z,6.05
2022-08-11T05:08:30.775Z,5.35
2022-08-11T05:09:53.783Z,5.60
2022-08-11T05:11:11.410Z,5.32
2022-08-11T05:12:38.447Z,5.15
2022-08-11T05:14:05.062Z,5.30
2022-08-11T05:15:32.161Z,5.13
2022-08-11T05:17:10.397Z,5.30
2022-08-11T05:18:35.153Z,5.35
2022-08-11T05:20:03.880Z,5.40
2022-08-11T05:21:28.442Z,4.60
2022-08-11T05:22:51.618Z,4.97
2022-08-11T05:24:22.065Z,4.95
2022-08-11T05:26:45.123Z,4.85
2022-08-11T05:27:39.105Z,4.75
2022-08-11T05:29:19.138Z,4.90
2022-08-11T05:30:48.600Z,4.80
2022-08-11T05:32:16.343Z,4.43
2022-08-11T05:33:50.067Z,4.90
2022-08-11T05:34:58.294Z,4.80
2022-08-11T05:36:12.894Z,5.28
2022-08-11T05:37:27.156Z,4.43
2022-08-11T05:38:52.662Z,4.07
2022-08-11T05:40:20.613Z,5.20
2022-08-11T05:41:46.460Z,4.90
2022-08-11T05:43:15.542Z,3.97
2022-08-11T05:44:40.508Z,4.68
2022-08-11T05:46:06.212Z,5.03
2022-08-11T05:47:46.951Z,4.40
2022-08-11T05:49:12.186Z,4.65
2022-08-11T05:50:37.202Z,5.38
2022-08-11T05:52:05.569Z,5.32
2022-08-11T05:53:45.963Z,5.30
2022-08-11T05:55:22.657Z,4.22
2022-08-11T05:56:28.043Z,5.13
2022-08-11T05:57:43.877Z,4.95
2022-08-11T05:58:57.207Z,4.88
2022-08-11T06:00:01.036Z,4.70
2022-08-11T06:01:11.470Z,4.57
2022-08-11T06:02:14.930Z,4.70
2022-08-11T06:03:28.142Z,5.18
2022-08-11T06:04:34.912Z,5.05
2022-08-11T06:05:45.891Z,4.18
2022-08-11T06:06:52.982Z,3.78
2022-08-11T06:07:57.943Z,4.53
2022-08-11T06:09:02.515Z,4.50
2022-08-11T06:10:10.873Z,4.22
2022-08-11T06:11:21.063Z,4.43
2022-08-11T06:12:56.538Z,4.43
2022-08-11T06:14:04.280Z,4.00
2022-08-11T06:15:11.872Z,3.80
2022-08-11T06:16:26.479Z,3.85
2022-08-11T06:17:38.797Z,4.45
2022-08-11T06:20:15.462Z,3.80
2022-08-11T06:21:30.373Z,4.07
2022-08-11T06:22:35.281Z,4.85
2022-08-11T06:23:38.472Z,4.47
2022-08-11T06:25:05.017Z,3.95
2022-08-11T06:26:10.694Z,5.05
2022-08-11T06:27:29.401Z,4.10
2022-08-11T06:28:37.088Z,4.40
2022-08-11T06:29:55.037Z,4.25
2022-08-11T06:31:17.233Z,4.20
2022-08-11T06:32:26.900Z,4.22
2022-08-11T06:33:40.422Z,4.40
2022-08-11T06:35:06.469Z,4.43
2022-08-11T06:39:48.177Z,4.72
2022-08-11T06:42:51.450Z,4.60
2022-08-11T06:47:33.028Z,3.90
2022-08-11T06:59:23.970Z,4.35
2022-08-11T07:24:59.210Z,4.18
2022-08-11T07:28:03.645Z,4.35
2022-08-11T07:50:25.603Z,4.45
2022-08-11T07:55:50.241Z,4.10
2022-08-11T07:58:27.109Z,4.10
2022-08-11T08:03:18.165Z,3.85
2022-08-11T08:05:48.744Z,4.60
2022-08-11T08:07:45.538Z,4.10
2022-08-11T08:10:05.391Z,4.18
2022-08-11T08:12:53.781Z,4.28
2022-08-11T08:29:55.779Z,4.47
2022-08-11T08:35:14.829Z,4.25
2022-08-11T08:37:45.917Z,4.00
2022-08-11T08:40:03.857Z,4.10
2022-08-11T08:42:52.188Z,3.80
2022-08-11T08:52:01.248Z,4.15
2022-08-11T08:54:16.643Z,4.30
2022-08-11T08:55:53.530Z,4.30
2022-08-11T08:59:12.979Z,4.13
2022-08-11T09:04:04.879Z,4.20
2022-08-11T09:07:47.828Z,4.50
2022-08-11T09:17:43.486Z,3.90
2022-08-11T09:25:42.058Z,3.90
2022-08-11T09:29:02.615Z,4.10
2022-08-11T09:31:03.175Z,4.28
2022-08-11T09:35:44.664Z,4.40
2022-08-11T09:55:45.440Z,3.55
2022-08-11T09:57:26.328Z,3.30
2022-08-11T10:01:44.224Z,3.90
2022-08-11T10:17:49.561Z,4.75
2022-08-11T10:19:42.096Z,5.35
2022-08-11T10:32:58.759Z,3.70
2022-08-11T10:35:03.343Z,3.40
2022-08-11T10:39:26.855Z,3.90
2022-08-11T10:46:37.049Z,3.50
2022-08-11T10:51:12.945Z,3.33
2022-08-11T10:55:42.979Z,3.50
2022-08-11T10:57:19.466Z,3.60
2022-08-11T10:59:56.901Z,3.55
2022-08-11T11:02:10.625Z,3.78
2022-08-11T11:12:22.636Z,3.22
2022-08-11T11:21:51.280Z,3.60
2022-08-11T11:36:35.097Z,3.72
2022-08-11T11:38:13.962Z,3.50
2022-08-11T11:39:54.361Z,3.28
2022-08-11T11:41:46.480Z,3.30
2022-08-11T11:43:54.924Z,2.72
2022-08-11T11:45:45.413Z,2.95
2022-08-11T11:52:27.706Z,3.05
2022-08-11T11:54:54.227Z,3.17
2022-08-11T11:57:17.818Z,2.90
2022-08-11T12:01:50.435Z,3.05
2022-08-11T12:06:35.369Z,3.15
2022-08-11T12:08:24.600Z,3.53
2022-08-11T12:13:21.986Z,3.00
2022-08-11T12:15:09.538Z,3.15
2022-08-11T12:19:22.945Z,3.00
2022-08-11T12:21:09.095Z,3.03
2022-08-11T12:25:33.904Z,2.60
2022-08-11T12:27:52.282Z,3.05
2022-08-11T12:29:33.790Z,2.75
2022-08-11T12:31:21.679Z,2.80
2022-08-11T12:32:57.176Z,2.60
2022-08-11T12:34:29.790Z,3.35
2022-08-11T12:36:01.073Z,3.13
2022-08-11T12:37:58.771Z,3.10
2022-08-11T12:40:16.462Z,3.00
2022-08-11T12:41:43.376Z,2.53
2022-08-11T12:43:42.557Z,2.95
2022-08-11T12:47:07.781Z,2.80
2022-08-11T12:52:38.855Z,2.63
2022-08-11T12:54:37.824Z,2.30
2022-08-11T13:01:13.149Z,3.28
2022-08-11T13:02:51.273Z,2.80
2022-08-11T13:07:13.525Z,2.63
2022-08-11T13:15:26.457Z,2.75
2022-08-11T13:18:03.573Z,2.75
2022-08-11T13:20:12.068Z,2.85
2022-08-11T13:22:33.633Z,2.50
2022-08-11T13:26:47.487Z,2.50
2022-08-11T13:28:28.127Z,2.60
2022-08-11T13:30:21.220Z,2.72
2022-08-11T13:31:39.060Z,3.15
2022-08-11T13:33:33.056Z,2.60
2022-08-11T13:35:03.132Z,2.70
2022-08-11T13:36:30.557Z,3.08
2022-08-11T13:38:19.418Z,2.35
2022-08-11T13:39:46.197Z,2.65
2022-08-11T13:42:12.940Z,3.10
2022-08-11T13:44:00.405Z,2.80
2022-08-11T13:45:44.006Z,2.60
2022-08-11T13:47:38.853Z,2.72
2022-08-11T13:49:06.307Z,2.40
2022-08-11T13:50:48.979Z,3.00
2022-08-11T13:56:33.861Z,2.70
2022-08-11T13:58:09.006Z,2.40
2022-08-11T13:59:32.833Z,2.38
2022-08-11T14:02:20.532Z,2.75
2022-08-11T14:03:10.986Z,2.78
2022-08-11T14:04:44.146Z,2.63
2022-08-11T14:09:29.463Z,2.50
2022-08-11T14:10:43.382Z,2.85
2022-08-11T14:12:22.518Z,2.22
2022-08-11T14:14:13.415Z,2.50
2022-08-11T14:15:45.893Z,2.58
2022-08-11T14:17:13.600Z,2.50
2022-08-11T14:19:13.337Z,2.78
2022-08-11T14:23:07.414Z,2.83
2022-08-11T14:25:23.216Z,2.60
2022-08-11T14:26:58.754Z,2.60
2022-08-11T14:28:34.146Z,2.42
2022-08-11T14:30:35.508Z,2.83
2022-08-11T14:34:26.406Z,2.60
2022-08-11T14:36:16.038Z,3.15
2022-08-11T14:37:52.386Z,2.85
2022-08-11T14:39:07.952Z,2.60
2022-08-11T14:40:44.673Z,2.75
2022-08-11T14:42:23.945Z,2.30
2022-08-11T14:46:19.295Z,2.10
2022-08-11T14:50:11.108Z,2.50
2022-08-11T14:53:33.687Z,2.25
2022-08-11T14:55:21.853Z,2.38
2022-08-11T14:56:43.917Z,2.20
2022-08-11T14:58:06.322Z,2.28
2022-08-11T14:59:12.804Z,2.50
2022-08-11T15:00:28.342Z,2.38
2022-08-11T15:01:52.175Z,2.63
2022-08-11T15:03:12.898Z,2.53
2022-08-11T15:04:35.054Z,2.40
2022-08-11T15:05:54.212Z,3.10
2022-08-11T15:07:16.751Z,3.25
2022-08-11T15:08:48.848Z,2.88
2022-08-11T15:10:29.360Z,2.80
2022-08-11T15:11:59.077Z,2.42
2022-08-11T15:13:44.263Z,2.63
2022-08-11T15:15:14.393Z,2.50
2022-08-11T15:16:43.757Z,2.53
2022-08-11T15:17:54.855Z,2.40
2022-08-11T15:19:03.458Z,2.70
2022-08-11T15:22:30.416Z,2.20
2022-08-11T15:23:58.638Z,2.22
2022-08-11T15:25:29.385Z,2.65
2022-08-11T15:27:02.829Z,2.35
2022-08-11T15:28:36.506Z,2.65
2022-08-11T15:30:03.571Z,2.65
2022-08-11T15:31:26.421Z,2.85
2022-08-11T15:33:01.978Z,2.50
2022-08-11T15:34:30.918Z,2.60
2022-08-11T15:35:55.294Z,2.80
2022-08-11T15:37:23.559Z,2.40
2022-08-11T15:38:39.415Z,2.90
2022-08-11T15:40:31.753Z,2.70
2022-08-11T15:42:16.053Z,2.70
2022-08-11T15:43:41.684Z,2.80
2022-08-11T15:45:16.176Z,2.60
2022-08-11T15:46:37.022Z,2.70
2022-08-11T15:47:45.999Z,2.45
2022-08-11T15:49:05.485Z,2.40
2022-08-11T15:50:20.366Z,2.25
2022-08-11T15:51:36.656Z,2.40
2022-08-11T15:52:53.419Z,2.30
2022-08-11T15:54:10.142Z,2.80
2022-08-11T15:55:49.500Z,2.30
2022-08-11T15:57:09.216Z,2.80
2022-08-11T15:58:32.285Z,2.92
2022-08-11T16:02:12.075Z,2.40
2022-08-11T16:03:54.520Z,2.70
2022-08-11T16:05:45.332Z,2.65
2022-08-11T16:06:57.799Z,2.33
2022-08-11T16:08:07.484Z,2.25
2022-08-11T16:09:18.278Z,2.50
2022-08-11T16:10:22.508Z,2.40
2022-08-11T16:11:32.714Z,2.10
2022-08-11T16:13:03.319Z,2.20
2022-08-11T16:14:35.950Z,2.38
2022-08-11T16:16:03.271Z,3.00
2022-08-11T16:17:15.232Z,2.30
2022-08-11T16:18:51.668Z,2.20
2022-08-11T16:22:34.026Z,2.03
2022-08-11T16:26:30.278Z,2.17
2022-08-11T16:27:05.521Z,2.38
2022-08-11T16:28:01.183Z,2.22
2022-08-11T16:29:30.969Z,2.40
2022-08-11T16:31:20.784Z,2.50
2022-08-11T16:32:56.903Z,2.45
2022-08-11T16:34:38.593Z,2.40
2022-08-11T16:39:23.725Z,2.45
2022-08-11T16:41:14.653Z,2.80
2022-08-11T16:43:22.685Z,2.30
2022-08-11T16:45:33.273Z,2.47
2022-08-11T16:48:02.247Z,2.42
2022-08-11T16:49:16.624Z,2.70
2022-08-11T16:51:40.618Z,2.85
2022-08-11T17:15:50.091Z,2.70
2022-08-11T17:17:27.475Z,2.80
2022-08-11T17:42:24.200Z,2.50
2022-08-11T17:57:03.863Z,2.05
2022-08-11T18:05:26.285Z,2.88
2022-08-11T18:09:50.336Z,10.20
2022-08-11T18:53:42.332Z,2.15
2022-08-11T18:56:10.823Z,2.10
2022-08-11T18:58:38.298Z,2.60
2022-08-11T19:25:28.491Z,2.60
2022-08-11T20:03:33.187Z,2.97
2022-08-11T20:06:11.727Z,2.83
2022-08-11T20:11:53.311Z,3.00
2022-08-11T20:26:57.863Z,3.07
2022-08-11T20:28:32.137Z,3.47
2022-08-11T20:29:58.988Z,3.95
2022-08-11T20:31:25.354Z,3.10
2022-08-11T20:32:47.524Z,3.50
2022-08-11T20:34:08.989Z,3.85
2022-08-11T20:35:30.368Z,2.95
2022-08-11T20:36:54.821Z,3.75
2022-08-11T20:38:17.439Z,3.40
2022-08-11T20:39:39.586Z,4.28
2022-08-11T20:41:01.630Z,3.38
2022-08-11T20:42:30.162Z,3.10
2022-08-11T20:44:08.404Z,3.00
2022-08-11T20:45:32.878Z,3.30
2022-08-11T20:46:57.235Z,3.20
2022-08-11T20:48:20.266Z,2.72
2022-08-11T20:49:53.903Z,3.22
2022-08-11T20:51:20.003Z,3.10
2022-08-11T20:54:43.136Z,3.40
2022-08-11T20:56:06.818Z,3.28
2022-08-11T20:57:58.640Z,3.08
2022-08-11T20:59:21.549Z,2.90
2022-08-11T21:00:44.220Z,2.90
2022-08-11T21:02:10.582Z,3.30
2022-08-11T21:03:44.905Z,3.50
2022-08-11T21:05:21.665Z,2.78
2022-08-11T21:08:59.642Z,3.40
2022-08-11T21:10:24.736Z,2.88
2022-08-11T21:11:46.915Z,2.70
2022-08-11T21:13:29.189Z,2.60
2022-08-11T21:14:55.078Z,2.92
2022-08-11T21:16:47.442Z,2.63
2022-08-11T21:18:28.366Z,2.63
2022-08-11T21:20:00.535Z,3.00
2022-08-11T21:21:45.504Z,2.55
2022-08-11T21:23:23.535Z,2.40
2022-08-11T21:24:57.992Z,2.80
2022-08-11T21:27:08.417Z,2.50
2022-08-11T21:32:08.493Z,3.20
2022-08-11T21:33:51.543Z,2.90
2022-08-11T21:35:19.271Z,2.72
2022-08-11T21:36:50.795Z,2.85
2022-08-11T21:38:19.233Z,2.75
2022-08-11T21:39:59.014Z,3.00
2022-08-11T21:41:30.068Z,3.08
2022-08-11T21:43:02.569Z,3.05
2022-08-11T21:44:26.737Z,2.83
2022-08-11T21:46:02.148Z,3.17
2022-08-11T21:47:49.561Z,3.38
2022-08-11T21:49:24.629Z,3.05
2022-08-11T21:50:46.085Z,2.70
2022-08-11T21:52:13.457Z,3.00
2022-08-11T21:53:46.762Z,2.90
2022-08-11T21:55:12.703Z,2.88
2022-08-11T21:56:40.004Z,2.92
2022-08-11T21:58:16.671Z,3.13
2022-08-11T21:59:46.823Z,2.88
2022-08-11T22:01:11.191Z,2.80
2022-08-11T22:02:53.941Z,3.10
2022-08-11T22:04:16.101Z,2.75
2022-08-11T22:05:39.610Z,2.80
2022-08-11T22:07:05.092Z,2.80
2022-08-11T22:08:29.684Z,2.60
2022-08-11T22:09:56.484Z,3.00
2022-08-11T22:11:31.699Z,2.70
2022-08-11T22:13:01.502Z,3.38
2022-08-11T22:14:25.291Z,3.10
2022-08-11T22:15:46.620Z,2.53
2022-08-11T22:17:11.214Z,3.05
2022-08-11T22:18:33.447Z,3.17
2022-08-11T22:20:02.859Z,2.90
2022-08-11T22:22:02.791Z,3.10
2022-08-11T22:23:10.917Z,3.53
2022-08-11T22:24:39.682Z,3.42
2022-08-11T22:26:07.387Z,2.92
2022-08-11T22:27:33.919Z,2.80
2022-08-11T22:28:59.418Z,3.20
2022-08-11T22:30:25.964Z,3.47
2022-08-11T22:31:48.897Z,3.28
2022-08-11T22:33:10.924Z,2.85
2022-08-11T22:34:53.120Z,3.15
2022-08-11T22:36:17.578Z,2.88
2022-08-11T22:37:40.663Z,2.38
2022-08-11T22:39:03.877Z,2.53
2022-08-11T22:40:26.408Z,2.70
2022-08-11T22:41:47.230Z,2.97
2022-08-11T22:43:07.774Z,4.00
2022-08-11T22:44:28.996Z,3.55
2022-08-11T22:45:49.798Z,3.50
2022-08-11T22:47:12.284Z,3.17
2022-08-11T22:48:38.888Z,2.80
2022-08-11T22:50:01.448Z,3.40
2022-08-11T22:51:22.115Z,3.50
2022-08-11T22:52:44.549Z,3.50
2022-08-11T22:54:07.021Z,2.90
2022-08-11T22:55:28.413Z,2.80
2022-08-11T22:56:50.440Z,3.10
2022-08-11T22:58:12.442Z,3.35
2022-08-11T22:59:34.190Z,2.97
2022-08-11T23:00:56.208Z,2.72
2022-08-11T23:02:16.870Z,3.15
2022-08-11T23:03:38.668Z,2.80
2022-08-11T23:05:00.945Z,2.85
2022-08-11T23:06:23.068Z,3.05
2022-08-11T23:07:51.086Z,3.00
2022-08-11T23:09:15.440Z,3.28
2022-08-11T23:10:39.485Z,3.50
2022-08-11T23:12:07.097Z,3.15
2022-08-11T23:13:32.301Z,3.42
2022-08-11T23:14:54.223Z,3.72
2022-08-11T23:16:15.878Z,3.03
2022-08-11T23:17:36.764Z,3.15
2022-08-11T23:18:59.357Z,3.60
2022-08-11T23:20:24.749Z,3.10
2022-08-11T23:22:06.678Z,3.30
2022-08-11T23:23:27.819Z,3.95
2022-08-11T23:24:48.492Z,3.65
2022-08-11T23:26:11.536Z,3.63
2022-08-11T23:27:33.377Z,3.45
2022-08-11T23:28:55.609Z,3.47
2022-08-11T23:30:20.939Z,3.35
2022-08-11T23:31:50.340Z,3.10
2022-08-11T23:33:16.991Z,3.08
2022-08-11T23:35:37.055Z,3.30
2022-08-11T23:36:35.936Z,3.17
2022-08-11T23:38:06.331Z,3.30
2022-08-11T23:39:27.603Z,3.25
2022-08-11T23:40:48.513Z,3.40
2022-08-11T23:42:09.251Z,3.65
2022-08-11T23:43:38.379Z,3.50
2022-08-11T23:44:59.157Z,3.33
2022-08-11T23:46:20.005Z,3.70
2022-08-11T23:47:50.854Z,3.55
2022-08-11T23:49:16.241Z,3.55
2022-08-11T23:50:37.845Z,3.70
2022-08-11T23:52:01.217Z,3.70
2022-08-11T23:53:22.179Z,3.80
2022-08-11T23:54:44.254Z,4.38
2022-08-11T23:56:05.569Z,3.65
2022-08-11T23:57:26.133Z,3.72
2022-08-11T23:58:47.471Z,4.32
